createdAt,value
2017-08-21T00:01:42.137Z,88.90
2017-08-21T00:04:09.548Z,88.50
2017-08-21T00:06:36.980Z,88.40
2017-08-21T00:09:04.453Z,88.50
2017-08-21T00:11:31.886Z,88.30
2017-08-21T00:13:59.304Z,88.50
2017-08-21T00:16:27.540Z,88.80
2017-08-21T00:18:54.985Z,88.80
2017-08-21T00:21:22.405Z,88.40
2017-08-21T00:23:50.641Z,89.80
2017-08-21T00:26:18.093Z,89.20
2017-08-21T00:28:45.521Z,88.40
2017-08-21T00:31:12.940Z,88.40
2017-08-21T00:33:40.362Z,88.90
2017-08-21T00:36:07.815Z,88.80
2017-08-21T00:38:35.230Z,89.20
2017-08-21T00:41:03.448Z,89.10
2017-08-21T00:43:30.880Z,89.10
2017-08-21T00:45:58.359Z,89.30
2017-08-21T00:48:25.790Z,88.90
2017-08-21T00:50:53.204Z,88.60
2017-08-21T00:53:20.644Z,89.10
2017-08-21T00:55:48.184Z,89.00
2017-08-21T00:58:15.641Z,89.10
2017-08-21T01:00:43.064Z,89.10
2017-08-21T01:03:10.500Z,89.20
2017-08-21T01:05:38.731Z,89.30
2017-08-21T01:08:06.185Z,89.30
2017-08-21T01:10:33.642Z,89.10
2017-08-21T01:13:01.093Z,89.70
2017-08-21T01:15:28.514Z,89.30
2017-08-21T01:17:55.945Z,89.20
2017-08-21T01:20:23.373Z,89.30
2017-08-21T01:22:50.799Z,89.10
2017-08-21T01:25:18.382Z,88.80
2017-08-21T01:27:45.809Z,89.10
2017-08-21T01:30:13.308Z,88.80
2017-08-21T01:32:40.776Z,88.90
2017-08-21T01:35:08.312Z,88.50
2017-08-21T01:37:35.770Z,89.20
2017-08-21T01:40:03.191Z,89.20
2017-08-21T01:42:31.416Z,88.90
2017-08-21T01:44:58.856Z,88.80
2017-08-21T01:47:26.344Z,88.70
2017-08-21T01:49:53.925Z,89.00
2017-08-21T01:52:21.354Z,88.80
2017-08-21T01:54:48.873Z,88.90
2017-08-21T01:57:17.065Z,90.00
2017-08-21T01:59:44.489Z,90.00
2017-08-21T02:02:11.900Z,90.20
2017-08-21T02:04:39.330Z,90.10
2017-08-21T02:07:06.809Z,90.00
2017-08-21T02:09:34.261Z,89.90
2017-08-21T02:12:01.701Z,89.40
2017-08-21T02:14:29.181Z,89.80
2017-08-21T02:16:56.631Z,90.00
2017-08-21T02:19:24.096Z,90.00
2017-08-21T02:21:51.575Z,90.00
2017-08-21T02:24:18.997Z,90.10
2017-08-21T02:26:46.447Z,90.00
2017-08-21T02:29:13.876Z,89.50
2017-08-21T02:31:41.310Z,89.60
2017-08-21T02:34:08.781Z,90.00
2017-08-21T02:36:36.269Z,90.10
2017-08-21T02:39:03.684Z,90.10
2017-08-21T02:41:31.112Z,89.50
2017-08-21T02:43:58.541Z,89.60
2017-08-21T02:46:26.017Z,89.80
2017-08-21T02:48:54.267Z,89.10
2017-08-21T02:51:21.700Z,89.10
2017-08-21T02:53:49.144Z,88.70
2017-08-21T02:56:16.660Z,88.50
2017-08-21T02:58:44.884Z,88.60
2017-08-21T03:01:12.313Z,88.80
2017-08-21T03:03:39.745Z,88.80
2017-08-21T03:06:07.956Z,90.00
2017-08-21T03:08:35.380Z,89.90
2017-08-21T03:11:02.884Z,90.30
2017-08-21T03:13:30.304Z,90.60
2017-08-21T03:15:57.732Z,90.90
2017-08-21T03:18:25.279Z,91.10
2017-08-21T03:20:52.700Z,91.20
2017-08-21T03:23:20.185Z,91.30
2017-08-21T03:25:47.605Z,91.40
2017-08-21T03:28:15.163Z,91.50
2017-08-21T03:30:43.388Z,91.70
2017-08-21T03:33:10.843Z,91.70
2017-08-21T03:35:38.301Z,91.70
2017-08-21T03:38:05.729Z,91.90
2017-08-21T03:40:33.213Z,91.90
2017-08-21T03:43:00.678Z,91.90
2017-08-21T03:45:28.113Z,91.90
2017-08-21T03:47:55.586Z,92.00
2017-08-21T03:50:23.023Z,92.10
2017-08-21T03:52:50.505Z,92.10
2017-08-21T03:55:18.064Z,92.20
2017-08-21T03:57:45.515Z,92.30
2017-08-21T04:00:12.912Z,92.40
2017-08-21T04:02:41.121Z,92.50
2017-08-21T04:05:08.562Z,92.50
2017-08-21T04:07:36.001Z,92.50
2017-08-21T04:10:04.184Z,92.60
2017-08-21T04:12:31.631Z,92.60
2017-08-21T04:14:59.080Z,92.60
2017-08-21T04:17:27.277Z,92.80
2017-08-21T04:19:54.710Z,92.80
2017-08-21T04:22:22.943Z,92.80
2017-08-21T04:24:50.391Z,92.80
2017-08-21T04:27:17.880Z,92.90
2017-08-21T04:29:46.085Z,92.90
2017-08-21T04:32:14.337Z,92.90
2017-08-21T04:34:42.589Z,93.40
2017-08-21T04:37:10.017Z,93.00
2017-08-21T04:39:37.460Z,93.00
2017-08-21T04:42:04.885Z,93.00
2017-08-21T04:44:32.393Z,93.00
2017-08-21T04:46:59.849Z,93.00
2017-08-21T04:49:27.305Z,93.10
2017-08-21T04:51:54.768Z,93.00
2017-08-21T04:54:22.185Z,93.10
2017-08-21T04:56:49.669Z,93.10
2017-08-21T04:59:17.092Z,93.10
2017-08-21T05:01:44.515Z,93.10
2017-08-21T05:04:11.945Z,93.10
2017-08-21T05:06:39.384Z,93.20
2017-08-21T05:09:06.901Z,93.20
2017-08-21T05:11:34.320Z,93.10
2017-08-21T05:14:01.789Z,93.10
2017-08-21T05:16:29.226Z,93.20
2017-08-21T05:18:57.441Z,93.20
2017-08-21T05:21:24.880Z,93.20
2017-08-21T05:23:52.332Z,93.10
2017-08-21T05:26:19.769Z,93.10
2017-08-21T05:28:47.197Z,93.00
2017-08-21T05:31:14.620Z,93.10
2017-08-21T05:33:42.069Z,92.90
2017-08-21T05:36:09.499Z,92.90
2017-08-21T05:38:36.920Z,92.90
2017-08-21T05:41:04.460Z,92.90
2017-08-21T05:43:31.896Z,92.90
2017-08-21T05:45:59.339Z,92.90
2017-08-21T05:48:26.808Z,92.90
2017-08-21T05:50:54.265Z,92.90
2017-08-21T05:53:21.677Z,92.80
2017-08-21T05:55:49.949Z,92.70
2017-08-21T05:58:18.163Z,92.70
2017-08-21T06:00:45.586Z,92.70
2017-08-21T06:03:13.780Z,92.50
2017-08-21T06:05:41.261Z,92.50
2017-08-21T06:08:08.688Z,92.50
2017-08-21T06:10:36.176Z,92.60
2017-08-21T06:13:03.629Z,92.50
2017-08-21T06:15:31.053Z,92.30
2017-08-21T06:17:58.544Z,92.20
2017-08-21T06:20:25.998Z,92.10
2017-08-21T06:22:53.470Z,92.10
2017-08-21T06:25:20.908Z,92.10
2017-08-21T06:27:48.386Z,92.40
2017-08-21T06:30:15.828Z,92.00
2017-08-21T06:32:43.283Z,92.00
2017-08-21T06:35:10.744Z,92.10
2017-08-21T06:37:38.196Z,92.00
2017-08-21T06:40:05.643Z,92.30
2017-08-21T06:42:33.131Z,91.70
2017-08-21T06:45:00.555Z,91.70
2017-08-21T06:47:28.027Z,91.70
2017-08-21T06:49:55.480Z,91.60
2017-08-21T06:52:23.029Z,91.70
2017-08-21T06:54:50.437Z,91.60
2017-08-21T06:57:18.633Z,91.40
2017-08-21T06:59:46.073Z,91.40
2017-08-21T07:02:14.407Z,91.30
2017-08-21T07:04:41.824Z,91.30
2017-08-21T07:07:09.379Z,91.00
2017-08-21T07:09:37.565Z,91.00
2017-08-21T07:12:04.990Z,91.00
2017-08-21T07:14:32.504Z,90.90
2017-08-21T07:16:59.960Z,90.90
2017-08-21T07:19:27.395Z,91.00
2017-08-21T07:21:54.877Z,90.90
2017-08-21T07:24:22.301Z,90.70
2017-08-21T07:26:49.739Z,90.70
2017-08-21T07:29:17.998Z,90.10
2017-08-21T07:31:45.448Z,90.10
2017-08-21T07:34:12.893Z,90.10
2017-08-21T07:36:41.460Z,90.00
2017-08-21T07:39:08.912Z,90.00
2017-08-21T07:41:36.369Z,90.10
2017-08-21T07:44:04.236Z,90.00
2017-08-21T07:46:31.639Z,89.90
2017-08-21T07:48:59.058Z,88.90
2017-08-21T07:51:28.015Z,88.30
2017-08-21T07:53:55.480Z,88.30
2017-08-21T07:56:22.899Z,86.90
2017-08-21T07:58:50.363Z,87.30
2017-08-21T08:01:17.767Z,86.60
2017-08-21T08:03:45.961Z,86.00
2017-08-21T08:06:13.387Z,85.80
2017-08-21T08:08:40.809Z,85.80
2017-08-21T08:11:08.307Z,86.30
2017-08-21T08:13:35.706Z,85.80
2017-08-21T08:16:03.240Z,84.70
2017-08-21T08:18:30.752Z,84.20
2017-08-21T08:20:58.248Z,84.10
2017-08-21T08:23:25.674Z,83.60
2017-08-21T08:25:53.092Z,82.50
2017-08-21T08:28:21.367Z,82.30
2017-08-21T08:30:48.779Z,82.30
2017-08-21T08:33:18.080Z,82.60
2017-08-21T08:35:45.541Z,81.20
2017-08-21T08:38:12.964Z,82.10
2017-08-21T08:40:41.175Z,80.80
2017-08-21T08:43:08.749Z,80.80
2017-08-21T08:45:36.323Z,80.10
2017-08-21T08:48:03.756Z,79.70
2017-08-21T08:50:31.172Z,79.50
2017-08-21T08:52:59.370Z,78.70
2017-08-21T08:55:26.793Z,78.70
2017-08-21T08:57:54.229Z,78.50
2017-08-21T09:00:21.711Z,78.30
2017-08-21T09:02:49.148Z,77.50
2017-08-21T09:05:16.577Z,77.00
2017-08-21T09:07:44.036Z,76.70
2017-08-21T09:10:11.532Z,76.70
2017-08-21T09:12:38.965Z,76.90
2017-08-21T09:15:06.378Z,76.30
2017-08-21T09:17:34.600Z,76.20
2017-08-21T09:20:02.028Z,76.10
2017-08-21T09:22:29.494Z,75.90
2017-08-21T09:24:56.925Z,75.70
2017-08-21T09:27:25.152Z,76.60
2017-08-21T09:29:52.579Z,75.70
2017-08-21T09:32:20.016Z,75.80
2017-08-21T09:34:48.228Z,72.10
2017-08-21T09:37:15.640Z,72.70
2017-08-21T09:39:43.094Z,72.70
2017-08-21T09:42:10.540Z,73.00
2017-08-21T09:44:37.981Z,72.50
2017-08-21T09:47:05.386Z,71.50
2017-08-21T09:49:33.584Z,71.20
2017-08-21T09:52:01.756Z,71.60
2017-08-21T09:54:29.186Z,71.60
2017-08-21T09:56:56.696Z,71.30
2017-08-21T09:59:24.152Z,71.60
2017-08-21T10:01:51.569Z,71.10
2017-08-21T10:04:19.008Z,69.90
2017-08-21T10:06:46.420Z,69.50
2017-08-21T10:09:13.852Z,70.30
2017-08-21T10:11:41.268Z,70.00
2017-08-21T10:14:08.716Z,69.20
2017-08-21T10:16:36.192Z,70.10
2017-08-21T10:19:03.643Z,69.80
2017-08-21T10:21:31.195Z,69.10
2017-08-21T10:23:58.630Z,67.50
2017-08-21T10:26:26.053Z,67.70
2017-08-21T10:28:53.480Z,67.30
2017-08-21T10:31:20.902Z,66.90
2017-08-21T10:33:49.014Z,67.90
2017-08-21T10:36:57.093Z,67.50
2017-08-21T10:39:24.506Z,67.50
2017-08-21T10:41:52.016Z,67.40
2017-08-21T10:44:19.471Z,67.90
2017-08-21T10:46:46.892Z,68.00
2017-08-21T10:49:14.324Z,68.20
2017-08-21T10:51:41.849Z,68.60
2017-08-21T10:54:09.271Z,67.50
2017-08-21T10:56:36.692Z,67.30
2017-08-21T10:59:04.113Z,67.60
2017-08-21T11:01:31.565Z,66.20
2017-08-21T11:03:59.056Z,64.80
2017-08-21T11:06:26.487Z,65.40
2017-08-21T11:08:53.988Z,64.20
2017-08-21T11:11:21.421Z,62.60
2017-08-21T11:13:49.376Z,62.00
2017-08-21T11:16:16.784Z,62.20
2017-08-21T11:18:44.316Z,62.00
2017-08-21T11:21:11.776Z,60.90
2017-08-21T11:23:39.232Z,59.60
2017-08-21T11:26:06.657Z,59.40
2017-08-21T11:28:34.170Z,60.30
2017-08-21T11:31:01.569Z,60.70
2017-08-21T11:33:28.994Z,59.60
2017-08-21T11:35:56.517Z,58.60
2017-08-21T11:38:23.957Z,58.90
2017-08-21T11:40:51.413Z,59.60
2017-08-21T11:43:18.861Z,59.50
2017-08-21T11:45:46.273Z,59.60
2017-08-21T11:48:13.781Z,59.00
2017-08-21T11:50:41.214Z,58.40
2017-08-21T11:53:09.419Z,58.40
2017-08-21T11:55:36.841Z,58.40
2017-08-21T11:58:04.255Z,58.40
2017-08-21T12:00:31.799Z,58.30
2017-08-21T12:02:59.212Z,58.40
2017-08-21T12:05:26.716Z,57.30
2017-08-21T12:07:54.124Z,55.60
2017-08-21T12:10:21.535Z,54.70
2017-08-21T12:12:49.059Z,54.20
2017-08-21T12:15:16.472Z,53.90
2017-08-21T12:17:44.081Z,54.50
2017-08-21T12:20:11.536Z,53.50
2017-08-21T12:22:39.015Z,51.80
2017-08-21T12:25:06.442Z,50.40
2017-08-21T12:27:33.900Z,49.20
2017-08-21T12:30:01.441Z,48.70
2017-08-21T12:32:28.848Z,47.90
2017-08-21T12:34:56.299Z,46.90
2017-08-21T12:37:23.712Z,45.50
2017-08-21T12:39:51.896Z,45.60
2017-08-21T12:42:19.321Z,45.50
2017-08-21T12:44:46.742Z,44.30
2017-08-21T12:47:14.212Z,45.20
2017-08-21T12:49:41.673Z,47.00
2017-08-21T12:52:09.118Z,49.30
2017-08-21T12:54:36.567Z,51.30
2017-08-21T12:57:04.026Z,53.30
2017-08-21T12:59:31.637Z,54.50
2017-08-21T13:01:59.068Z,54.80
2017-08-21T13:04:26.480Z,55.30
2017-08-21T13:06:53.911Z,55.30
2017-08-21T13:09:21.410Z,54.30
2017-08-21T13:11:48.824Z,51.90
2017-08-21T13:14:16.309Z,49.80
2017-08-21T13:16:43.757Z,47.90
2017-08-21T13:19:11.203Z,48.30
2017-08-21T13:21:38.782Z,47.30
2017-08-21T13:24:06.234Z,47.30
2017-08-21T13:26:33.696Z,45.70
2017-08-21T13:29:01.164Z,45.60
2017-08-21T13:31:28.593Z,47.30
2017-08-21T13:33:56.063Z,46.50
2017-08-21T13:36:23.493Z,44.20
2017-08-21T13:38:50.946Z,42.30
2017-08-21T13:41:18.437Z,42.60
2017-08-21T13:43:45.893Z,41.30
2017-08-21T13:46:13.390Z,40.10
2017-08-21T13:48:40.828Z,39.50
2017-08-21T13:51:08.241Z,41.20
2017-08-21T13:53:35.764Z,43.00
2017-08-21T13:56:03.193Z,41.10
2017-08-21T13:58:30.633Z,41.40
2017-08-21T14:00:58.085Z,42.80
2017-08-21T14:03:25.561Z,45.40
2017-08-21T14:05:52.985Z,47.90
2017-08-21T14:08:20.460Z,49.50
2017-08-21T14:10:47.893Z,51.20
2017-08-21T14:13:15.342Z,52.80
2017-08-21T14:15:42.818Z,53.60
2017-08-21T14:18:10.251Z,54.60
2017-08-21T14:20:37.742Z,55.10
2017-08-21T14:23:05.169Z,55.50
2017-08-21T14:25:32.654Z,55.80
2017-08-21T14:28:00.093Z,56.00
2017-08-21T14:30:27.552Z,56.30
2017-08-21T14:32:55.016Z,56.30
2017-08-21T14:35:22.432Z,56.20
2017-08-21T14:37:49.854Z,56.30
2017-08-21T14:40:17.276Z,56.30
2017-08-21T14:42:44.735Z,56.50
2017-08-21T14:45:12.153Z,56.50
2017-08-21T14:47:39.680Z,56.40
2017-08-21T14:50:07.100Z,56.20
2017-08-21T14:52:34.524Z,55.90
2017-08-21T14:55:02.036Z,54.80
2017-08-21T14:57:29.470Z,54.00
2017-08-21T14:59:56.884Z,53.70
2017-08-21T15:02:24.316Z,53.90
2017-08-21T15:04:51.749Z,54.30
2017-08-21T15:07:19.261Z,55.10
2017-08-21T15:09:46.688Z,55.90
2017-08-21T15:12:14.157Z,56.50
2017-08-21T15:14:41.637Z,56.40
2017-08-21T15:17:09.108Z,57.30
2017-08-21T15:19:36.633Z,58.80
2017-08-21T15:22:04.052Z,60.70
2017-08-21T15:24:31.649Z,62.80
2017-08-21T15:26:59.097Z,64.00
2017-08-21T15:29:26.513Z,65.20
2017-08-21T15:31:53.957Z,67.20
2017-08-21T15:34:21.369Z,68.00
2017-08-21T15:36:48.816Z,67.50
2017-08-21T15:39:16.262Z,67.70
2017-08-21T15:41:44.480Z,67.10
2017-08-21T15:44:11.921Z,67.10
2017-08-21T15:46:39.373Z,67.20
2017-08-21T15:49:06.845Z,67.80
2017-08-21T15:51:34.338Z,67.40
2017-08-21T15:54:01.793Z,66.90
2017-08-21T15:56:29.227Z,66.90
2017-08-21T15:58:56.644Z,66.20
2017-08-21T16:01:24.847Z,65.70
2017-08-21T16:03:52.278Z,65.50
2017-08-21T16:06:19.700Z,65.50
2017-08-21T16:08:47.134Z,65.40
2017-08-21T16:11:14.544Z,64.60
2017-08-21T16:13:42.048Z,64.90
2017-08-21T16:16:09.457Z,65.00
2017-08-21T16:18:36.881Z,64.10
2017-08-21T16:21:04.302Z,63.90
2017-08-21T16:23:31.720Z,64.20
2017-08-21T16:25:59.145Z,64.50
2017-08-21T16:28:26.565Z,65.10
2017-08-21T16:30:54.050Z,65.70
2017-08-21T16:33:21.461Z,66.90
2017-08-21T16:35:48.886Z,67.90
2017-08-21T16:38:16.411Z,68.20
2017-08-21T16:40:43.832Z,68.70
2017-08-21T16:43:11.253Z,67.90
2017-08-21T16:45:38.788Z,67.50
2017-08-21T16:48:06.263Z,67.10
2017-08-21T16:50:33.664Z,67.10
2017-08-21T16:53:01.104Z,67.40
2017-08-21T16:55:28.535Z,67.70
2017-08-21T16:57:56.070Z,67.70
2017-08-21T17:00:23.642Z,68.40
2017-08-21T17:02:51.061Z,68.60
2017-08-21T17:05:18.642Z,67.80
2017-08-21T17:07:46.114Z,68.30
2017-08-21T17:10:13.540Z,68.30
2017-08-21T17:12:41.024Z,68.40
2017-08-21T17:15:08.471Z,68.90
2017-08-21T17:17:35.977Z,68.50
2017-08-21T17:20:03.392Z,68.40
2017-08-21T17:22:30.849Z,69.00
2017-08-21T17:24:58.321Z,68.60
2017-08-21T17:27:25.757Z,68.50
2017-08-21T17:29:53.238Z,68.50
2017-08-21T17:32:20.796Z,68.20
2017-08-21T17:34:48.248Z,68.20
2017-08-21T17:37:15.717Z,68.20
2017-08-21T17:39:43.178Z,68.30
2017-08-21T17:42:10.613Z,69.00
2017-08-21T17:44:38.071Z,69.20
2017-08-21T17:47:05.569Z,70.30
2017-08-21T17:49:33.000Z,70.30
2017-08-21T17:52:00.442Z,70.80
2017-08-21T17:54:27.992Z,70.70
2017-08-21T17:56:55.445Z,70.80
2017-08-21T17:59:22.850Z,71.10
2017-08-21T18:01:50.277Z,71.10
2017-08-21T18:04:17.733Z,71.00
2017-08-21T18:06:45.325Z,71.00
2017-08-21T18:09:12.808Z,70.90
2017-08-21T18:11:40.229Z,71.10
2017-08-21T18:14:07.661Z,71.10
2017-08-21T18:16:35.094Z,71.00
2017-08-21T18:19:02.560Z,71.30
2017-08-21T18:21:30.020Z,71.20
2017-08-21T18:23:57.448Z,71.30
2017-08-21T18:26:24.874Z,71.70
2017-08-21T18:28:52.365Z,71.90
2017-08-21T18:31:19.787Z,71.60
2017-08-21T18:33:47.305Z,71.90
2017-08-21T18:36:14.824Z,72.90
2017-08-21T18:38:42.330Z,73.10
2017-08-21T18:41:09.766Z,73.10
2017-08-21T18:43:37.190Z,73.20
2017-08-21T18:46:04.622Z,73.30
2017-08-21T18:48:32.053Z,73.10
2017-08-21T18:51:00.460Z,73.20
2017-08-21T18:53:27.981Z,72.80
2017-08-21T18:55:55.401Z,73.40
2017-08-21T18:58:22.888Z,72.70
2017-08-21T19:00:50.319Z,73.60
2017-08-21T19:03:17.798Z,74.20
2017-08-21T19:05:45.221Z,74.50
2017-08-21T19:08:12.658Z,74.40
2017-08-21T19:10:40.097Z,74.70
2017-08-21T19:13:07.626Z,74.90
2017-08-21T19:15:35.080Z,74.90
2017-08-21T19:18:02.556Z,74.80
2017-08-21T19:20:30.115Z,75.30
2017-08-21T19:22:57.664Z,75.10
2017-08-21T19:25:25.129Z,75.20
2017-08-21T19:27:52.576Z,75.20
2017-08-21T19:30:20.009Z,75.50
2017-08-21T19:32:47.428Z,76.00
2017-08-21T19:35:14.940Z,75.60
2017-08-21T19:37:42.364Z,76.30
2017-08-21T19:40:09.798Z,76.00
2017-08-21T19:42:37.213Z,75.70
2017-08-21T19:45:04.665Z,75.70
2017-08-21T19:47:32.093Z,75.70
2017-08-21T19:49:59.505Z,76.20
2017-08-21T19:52:26.936Z,76.00
2017-08-21T19:54:54.364Z,76.10
2017-08-21T19:57:21.869Z,76.70
2017-08-21T19:59:49.305Z,76.90
2017-08-21T20:02:16.740Z,76.70
2017-08-21T20:04:44.181Z,77.00
2017-08-21T20:07:11.617Z,77.30
2017-08-21T20:09:39.052Z,77.70
2017-08-21T20:12:06.497Z,78.00
2017-08-21T20:14:34.683Z,78.30
2017-08-21T20:17:02.133Z,78.20
2017-08-21T20:19:29.565Z,78.60
2017-08-21T20:21:56.980Z,79.00
2017-08-21T20:24:24.532Z,79.70
2017-08-21T20:26:51.990Z,79.70
2017-08-21T20:29:19.448Z,79.80
2017-08-21T20:31:46.905Z,79.40
2017-08-21T20:34:14.349Z,79.20
2017-08-21T20:36:41.771Z,79.50
2017-08-21T20:39:09.201Z,79.80
2017-08-21T20:41:36.627Z,80.70
2017-08-21T20:44:04.109Z,80.60
2017-08-21T20:46:31.542Z,82.20
2017-08-21T20:48:58.968Z,81.40
2017-08-21T20:51:26.476Z,81.60
2017-08-21T20:53:53.932Z,82.40
2017-08-21T20:56:21.364Z,82.10
2017-08-21T20:58:48.802Z,81.70
2017-08-21T21:01:16.205Z,81.80
2017-08-21T21:03:43.661Z,81.70
2017-08-21T21:06:11.116Z,81.60
2017-08-21T21:08:38.549Z,81.50
2017-08-21T21:11:06.021Z,81.60
2017-08-21T21:13:33.481Z,81.30
2017-08-21T21:16:00.896Z,81.90
2017-08-21T21:18:28.333Z,81.90
2017-08-21T21:20:55.781Z,81.90
2017-08-21T21:23:23.200Z,82.00
2017-08-21T21:25:50.621Z,82.70
2017-08-21T21:28:18.060Z,82.40
2017-08-21T21:30:45.493Z,82.70
2017-08-21T21:33:12.933Z,82.50
2017-08-21T21:35:40.379Z,82.60
2017-08-21T21:38:07.798Z,82.60
2017-08-21T21:40:35.236Z,82.70
2017-08-21T21:43:02.842Z,82.80
2017-08-21T21:45:30.325Z,83.00
2017-08-21T21:47:57.766Z,83.30
2017-08-21T21:50:25.169Z,83.10
2017-08-21T21:52:52.805Z,83.50
2017-08-21T21:55:20.238Z,83.40
2017-08-21T21:57:47.741Z,83.60
2017-08-21T22:00:15.165Z,84.20
2017-08-21T22:02:42.598Z,84.10
2017-08-21T22:05:10.013Z,84.00
2017-08-21T22:07:37.436Z,83.90
2017-08-21T22:10:04.865Z,84.20
2017-08-21T22:12:32.305Z,85.10
2017-08-21T22:14:59.818Z,85.20
2017-08-21T22:17:27.266Z,85.60
2017-08-21T22:19:54.747Z,86.00
2017-08-21T22:22:22.175Z,86.10
2017-08-21T22:24:49.706Z,86.50
2017-08-21T22:27:17.119Z,86.80
2017-08-21T22:29:44.547Z,87.20
2017-08-21T22:32:11.964Z,87.40
2017-08-21T22:34:39.420Z,88.00
2017-08-21T22:37:06.849Z,87.70
2017-08-21T22:39:34.308Z,87.90
2017-08-21T22:42:01.877Z,88.50
2017-08-21T22:44:29.336Z,88.00
2017-08-21T22:46:56.771Z,88.20
2017-08-21T22:49:24.244Z,88.20
2017-08-21T22:51:51.665Z,88.00
2017-08-21T22:54:19.105Z,88.10
2017-08-21T22:56:46.521Z,88.40
2017-08-21T22:59:13.974Z,88.60
2017-08-21T23:01:58.869Z,89.10
2017-08-21T23:04:26.277Z,88.80
2017-08-21T23:06:53.704Z,89.30
2017-08-21T23:09:21.193Z,89.50
2017-08-21T23:11:48.617Z,89.30
2017-08-21T23:14:16.063Z,89.20
2017-08-21T23:16:43.489Z,89.30
2017-08-21T23:19:11.021Z,90.10
2017-08-21T23:21:38.449Z,90.00
2017-08-21T23:24:05.932Z,89.70
2017-08-21T23:26:33.360Z,90.40
2017-08-21T23:29:00.852Z,90.30
2017-08-21T23:31:28.298Z,91.00
2017-08-21T23:33:55.772Z,90.50
2017-08-21T23:36:23.216Z,90.80
2017-08-21T23:38:50.733Z,90.50
2017-08-21T23:41:18.227Z,90.50
2017-08-21T23:43:45.653Z,90.60
2017-08-21T23:46:13.077Z,90.60
2017-08-21T23:48:40.600Z,90.70
2017-08-21T23:51:08.056Z,90.90
2017-08-21T23:53:35.480Z,90.80
2017-08-21T23:56:02.916Z,91.00
2017-08-21T23:58:30.341Z,91.00
